sensor_id;sensor_type;location;lat;lon;timestamp;P1;durP1;ratioP1;P2;durP2;ratioP2
62582;SDS011;48641;51.676;5.808;2024-01-27T00:01:34;5.68;;;2.17;;
62582;SDS011;48641;51.676;5.808;2024-01-27T00:04:00;6.82;;;2.55;;
62582;SDS011;48641;51.676;5.808;2024-01-27T00:06:26;8.75;;;2.20;;
62582;SDS011;48641;51.676;5.808;2024-01-27T00:08:51;6.60;;;2.05;;
62582;SDS011;48641;51.676;5.808;2024-01-27T00:11:17;9.68;;;2.33;;
62582;SDS011;48641;51.676;5.808;2024-01-27T00:13:44;8.40;;;2.30;;
62582;SDS011;48641;51.676;5.808;2024-01-27T00:16:10;7.13;;;2.30;;
62582;SDS011;48641;51.676;5.808;2024-01-27T00:18:36;7.97;;;2.00;;
62582;SDS011;48641;51.676;5.808;2024-01-27T00:21:02;7.20;;;2.10;;
62582;SDS011;48641;51.676;5.808;2024-01-27T00:23:28;6.95;;;2.10;;
62582;SDS011;48641;51.676;5.808;2024-01-27T00:25:53;6.38;;;2.03;;
62582;SDS011;48641;51.676;5.808;2024-01-27T00:28:19;6.97;;;2.05;;
62582;SDS011;48641;51.676;5.808;2024-01-27T00:30:44;7.00;;;2.13;;
62582;SDS011;48641;51.676;5.808;2024-01-27T00:33:10;6.45;;;1.88;;
62582;SDS011;48641;51.676;5.808;2024-01-27T00:35:36;7.18;;;2.22;;
62582;SDS011;48641;51.676;5.808;2024-01-27T00:38:01;6.53;;;2.03;;
62582;SDS011;48641;51.676;5.808;2024-01-27T00:40:27;7.30;;;2.33;;
62582;SDS011;48641;51.676;5.808;2024-01-27T00:42:53;8.68;;;2.45;;
62582;SDS011;48641;51.676;5.808;2024-01-27T00:45:19;5.13;;;1.70;;
62582;SDS011;48641;51.676;5.808;2024-01-27T00:47:47;6.72;;;2.10;;
62582;SDS011;48641;51.676;5.808;2024-01-27T00:50:16;6.15;;;1.98;;
62582;SDS011;48641;51.676;5.808;2024-01-27T00:52:42;6.60;;;1.85;;
62582;SDS011;48641;51.676;5.808;2024-01-27T00:55:07;6.70;;;2.20;;
62582;SDS011;48641;51.676;5.808;2024-01-27T00:57:36;8.45;;;2.38;;
62582;SDS011;48641;51.676;5.808;2024-01-27T01:00:04;7.18;;;2.22;;
62582;SDS011;48641;51.676;5.808;2024-01-27T01:02:33;7.82;;;2.17;;
62582;SDS011;48641;51.676;5.808;2024-01-27T01:04:59;6.45;;;2.10;;
62582;SDS011;48641;51.676;5.808;2024-01-27T01:07:25;8.23;;;2.22;;
62582;SDS011;48641;51.676;5.808;2024-01-27T01:09:51;7.43;;;2.50;;
62582;SDS011;48641;51.676;5.808;2024-01-27T01:12:17;8.07;;;2.13;;
62582;SDS011;48641;51.676;5.808;2024-01-27T01:14:43;6.65;;;2.30;;
62582;SDS011;48641;51.676;5.808;2024-01-27T01:17:08;7.78;;;2.30;;
62582;SDS011;48641;51.676;5.808;2024-01-27T01:19:35;7.40;;;2.08;;
62582;SDS011;48641;51.676;5.808;2024-01-27T01:22:02;7.03;;;2.17;;
62582;SDS011;48641;51.676;5.808;2024-01-27T01:24:27;7.57;;;2.03;;
62582;SDS011;48641;51.676;5.808;2024-01-27T01:26:54;7.30;;;2.35;;
62582;SDS011;48641;51.676;5.808;2024-01-27T01:29:19;6.18;;;1.98;;
62582;SDS011;48641;51.676;5.808;2024-01-27T01:31:45;6.57;;;2.10;;
62582;SDS011;48641;51.676;5.808;2024-01-27T01:34:10;7.15;;;2.30;;
62582;SDS011;48641;51.676;5.808;2024-01-27T01:36:36;6.32;;;2.00;;
62582;SDS011;48641;51.676;5.808;2024-01-27T01:39:02;7.38;;;2.50;;
62582;SDS011;48641;51.676;5.808;2024-01-27T01:41:28;6.50;;;2.00;;
62582;SDS011;48641;51.676;5.808;2024-01-27T01:43:54;6.80;;;2.15;;
62582;SDS011;48641;51.676;5.808;2024-01-27T01:46:21;8.00;;;2.72;;
62582;SDS011;48641;51.676;5.808;2024-01-27T01:48:48;6.38;;;2.20;;
62582;SDS011;48641;51.676;5.808;2024-01-27T01:51:15;6.82;;;2.10;;
62582;SDS011;48641;51.676;5.808;2024-01-27T01:53:41;6.53;;;2.10;;
62582;SDS011;48641;51.676;5.808;2024-01-27T01:56:08;9.98;;;2.65;;
62582;SDS011;48641;51.676;5.808;2024-01-27T01:58:33;6.68;;;2.38;;
62582;SDS011;48641;51.676;5.808;2024-01-27T02:01:02;6.65;;;2.28;;
62582;SDS011;48641;51.676;5.808;2024-01-27T02:03:27;7.25;;;2.38;;
62582;SDS011;48641;51.676;5.808;2024-01-27T02:05:54;5.72;;;2.05;;
62582;SDS011;48641;51.676;5.808;2024-01-27T02:08:20;6.97;;;2.28;;
62582;SDS011;48641;51.676;5.808;2024-01-27T02:10:46;6.97;;;2.22;;
62582;SDS011;48641;51.676;5.808;2024-01-27T02:13:21;8.60;;;2.35;;
62582;SDS011;48641;51.676;5.808;2024-01-27T02:15:48;6.55;;;2.25;;
62582;SDS011;48641;51.676;5.808;2024-01-27T02:18:15;8.32;;;2.33;;
62582;SDS011;48641;51.676;5.808;2024-01-27T02:20:41;6.65;;;2.10;;
62582;SDS011;48641;51.676;5.808;2024-01-27T02:23:07;7.13;;;2.40;;
62582;SDS011;48641;51.676;5.808;2024-01-27T02:25:33;7.93;;;2.42;;
62582;SDS011;48641;51.676;5.808;2024-01-27T02:27:59;7.18;;;2.20;;
62582;SDS011;48641;51.676;5.808;2024-01-27T02:30:25;6.97;;;2.42;;
62582;SDS011;48641;51.676;5.808;2024-01-27T02:32:51;7.47;;;2.40;;
62582;SDS011;48641;51.676;5.808;2024-01-27T02:35:17;7.72;;;2.38;;
62582;SDS011;48641;51.676;5.808;2024-01-27T02:37:42;8.00;;;2.40;;
62582;SDS011;48641;51.676;5.808;2024-01-27T02:40:08;6.35;;;2.20;;
62582;SDS011;48641;51.676;5.808;2024-01-27T02:42:35;7.13;;;2.30;;
62582;SDS011;48641;51.676;5.808;2024-01-27T02:45:01;7.47;;;2.35;;
62582;SDS011;48641;51.676;5.808;2024-01-27T02:47:27;8.18;;;2.45;;
62582;SDS011;48641;51.676;5.808;2024-01-27T02:49:53;5.95;;;2.42;;
62582;SDS011;48641;51.676;5.808;2024-01-27T02:52:18;8.18;;;2.45;;
62582;SDS011;48641;51.676;5.808;2024-01-27T02:54:44;8.38;;;2.67;;
62582;SDS011;48641;51.676;5.808;2024-01-27T02:57:09;8.23;;;2.30;;
62582;SDS011;48641;51.676;5.808;2024-01-27T02:59:35;7.65;;;2.10;;
62582;SDS011;48641;51.676;5.808;2024-01-27T03:02:02;7.20;;;2.30;;
62582;SDS011;48641;51.676;5.808;2024-01-27T03:04:27;8.32;;;2.70;;
62582;SDS011;48641;51.676;5.808;2024-01-27T03:06:53;6.47;;;2.30;;
62582;SDS011;48641;51.676;5.808;2024-01-27T03:09:18;7.90;;;2.50;;
62582;SDS011;48641;51.676;5.808;2024-01-27T03:11:44;6.75;;;2.45;;
62582;SDS011;48641;51.676;5.808;2024-01-27T03:14:10;6.93;;;2.42;;
62582;SDS011;48641;51.676;5.808;2024-01-27T03:16:35;5.80;;;2.10;;
62582;SDS011;48641;51.676;5.808;2024-01-27T03:19:01;8.50;;;2.47;;
62582;SDS011;48641;51.676;5.808;2024-01-27T03:21:27;6.72;;;2.53;;
62582;SDS011;48641;51.676;5.808;2024-01-27T03:23:52;7.47;;;2.33;;
62582;SDS011;48641;51.676;5.808;2024-01-27T03:26:18;7.00;;;2.45;;
62582;SDS011;48641;51.676;5.808;2024-01-27T03:28:44;7.40;;;2.25;;
62582;SDS011;48641;51.676;5.808;2024-01-27T03:31:09;7.53;;;2.30;;
62582;SDS011;48641;51.676;5.808;2024-01-27T03:33:35;5.68;;;2.17;;
62582;SDS011;48641;51.676;5.808;2024-01-27T03:36:01;8.10;;;2.65;;
62582;SDS011;48641;51.676;5.808;2024-01-27T03:38:26;7.38;;;2.55;;
62582;SDS011;48641;51.676;5.808;2024-01-27T03:40:52;6.68;;;2.25;;
62582;SDS011;48641;51.676;5.808;2024-01-27T03:43:17;7.35;;;2.80;;
62582;SDS011;48641;51.676;5.808;2024-01-27T03:45:43;7.70;;;2.60;;
62582;SDS011;48641;51.676;5.808;2024-01-27T03:48:09;6.13;;;1.90;;
62582;SDS011;48641;51.676;5.808;2024-01-27T03:50:34;7.25;;;2.55;;
62582;SDS011;48641;51.676;5.808;2024-01-27T03:53:00;9.73;;;2.90;;
62582;SDS011;48641;51.676;5.808;2024-01-27T03:55:25;8.63;;;2.80;;
62582;SDS011;48641;51.676;5.808;2024-01-27T03:57:51;6.95;;;2.95;;
62582;SDS011;48641;51.676;5.808;2024-01-27T04:00:17;8.27;;;2.55;;
62582;SDS011;48641;51.676;5.808;2024-01-27T04:02:42;6.35;;;2.42;;
62582;SDS011;48641;51.676;5.808;2024-01-27T04:05:08;6.70;;;2.65;;
62582;SDS011;48641;51.676;5.808;2024-01-27T04:07:33;6.90;;;2.92;;
62582;SDS011;48641;51.676;5.808;2024-01-27T04:10:01;6.10;;;2.20;;
62582;SDS011;48641;51.676;5.808;2024-01-27T04:12:27;7.77;;;2.60;;
62582;SDS011;48641;51.676;5.808;2024-01-27T04:14:53;8.55;;;2.50;;
62582;SDS011;48641;51.676;5.808;2024-01-27T04:17:18;7.18;;;2.75;;
62582;SDS011;48641;51.676;5.808;2024-01-27T04:19:44;8.80;;;2.80;;
62582;SDS011;48641;51.676;5.808;2024-01-27T04:22:09;7.03;;;2.50;;
62582;SDS011;48641;51.676;5.808;2024-01-27T04:24:35;8.35;;;2.50;;
62582;SDS011;48641;51.676;5.808;2024-01-27T04:27:01;6.90;;;2.45;;
62582;SDS011;48641;51.676;5.808;2024-01-27T04:29:27;8.23;;;2.95;;
62582;SDS011;48641;51.676;5.808;2024-01-27T04:31:53;6.05;;;2.38;;
62582;SDS011;48641;51.676;5.808;2024-01-27T04:34:18;6.88;;;2.58;;
62582;SDS011;48641;51.676;5.808;2024-01-27T04:36:44;8.27;;;2.50;;
62582;SDS011;48641;51.676;5.808;2024-01-27T04:39:09;7.38;;;2.45;;
62582;SDS011;48641;51.676;5.808;2024-01-27T04:41:40;5.80;;;2.50;;
62582;SDS011;48641;51.676;5.808;2024-01-27T04:44:07;8.80;;;2.72;;
62582;SDS011;48641;51.676;5.808;2024-01-27T04:46:33;8.00;;;2.53;;
62582;SDS011;48641;51.676;5.808;2024-01-27T04:48:59;8.07;;;2.50;;
62582;SDS011;48641;51.676;5.808;2024-01-27T04:51:24;8.30;;;2.45;;
62582;SDS011;48641;51.676;5.808;2024-01-27T04:53:50;7.18;;;2.60;;
62582;SDS011;48641;51.676;5.808;2024-01-27T04:56:15;8.52;;;2.50;;
62582;SDS011;48641;51.676;5.808;2024-01-27T04:58:41;6.97;;;2.40;;
62582;SDS011;48641;51.676;5.808;2024-01-27T05:01:07;5.53;;;2.40;;
62582;SDS011;48641;51.676;5.808;2024-01-27T05:03:33;8.63;;;2.80;;
62582;SDS011;48641;51.676;5.808;2024-01-27T05:05:59;6.85;;;2.80;;
62582;SDS011;48641;51.676;5.808;2024-01-27T05:08:25;8.05;;;2.72;;
62582;SDS011;48641;51.676;5.808;2024-01-27T05:10:50;9.13;;;2.60;;
62582;SDS011;48641;51.676;5.808;2024-01-27T05:13:16;7.20;;;2.42;;
62582;SDS011;48641;51.676;5.808;2024-01-27T05:15:42;7.57;;;2.70;;
62582;SDS011;48641;51.676;5.808;2024-01-27T05:18:07;8.07;;;2.65;;
62582;SDS011;48641;51.676;5.808;2024-01-27T05:20:33;6.78;;;2.35;;
62582;SDS011;48641;51.676;5.808;2024-01-27T05:22:58;6.80;;;2.53;;
62582;SDS011;48641;51.676;5.808;2024-01-27T05:25:24;7.63;;;2.45;;
62582;SDS011;48641;51.676;5.808;2024-01-27T05:27:49;7.75;;;2.60;;
62582;SDS011;48641;51.676;5.808;2024-01-27T05:30:15;7.38;;;2.17;;
62582;SDS011;48641;51.676;5.808;2024-01-27T05:32:41;8.27;;;3.05;;
62582;SDS011;48641;51.676;5.808;2024-01-27T05:35:07;5.95;;;2.65;;
62582;SDS011;48641;51.676;5.808;2024-01-27T05:37:33;7.05;;;2.47;;
62582;SDS011;48641;51.676;5.808;2024-01-27T05:39:58;7.10;;;2.80;;
62582;SDS011;48641;51.676;5.808;2024-01-27T05:42:24;7.35;;;2.53;;
62582;SDS011;48641;51.676;5.808;2024-01-27T05:44:49;6.63;;;2.35;;
62582;SDS011;48641;51.676;5.808;2024-01-27T05:47:15;5.93;;;2.40;;
62582;SDS011;48641;51.676;5.808;2024-01-27T05:49:41;5.97;;;2.28;;
62582;SDS011;48641;51.676;5.808;2024-01-27T05:52:06;7.75;;;2.78;;
62582;SDS011;48641;51.676;5.808;2024-01-27T05:54:32;7.40;;;2.35;;
62582;SDS011;48641;51.676;5.808;2024-01-27T05:56:58;9.10;;;2.70;;
62582;SDS011;48641;51.676;5.808;2024-01-27T05:59:23;6.18;;;2.15;;
62582;SDS011;48641;51.676;5.808;2024-01-27T06:01:49;7.15;;;2.78;;
62582;SDS011;48641;51.676;5.808;2024-01-27T06:04:15;7.70;;;2.67;;
62582;SDS011;48641;51.676;5.808;2024-01-27T06:06:40;7.40;;;2.65;;
62582;SDS011;48641;51.676;5.808;2024-01-27T06:09:09;7.72;;;2.40;;
62582;SDS011;48641;51.676;5.808;2024-01-27T06:11:38;6.68;;;2.42;;
62582;SDS011;48641;51.676;5.808;2024-01-27T06:14:04;6.47;;;2.35;;
62582;SDS011;48641;51.676;5.808;2024-01-27T06:16:31;6.78;;;2.30;;
62582;SDS011;48641;51.676;5.808;2024-01-27T06:18:57;7.53;;;2.70;;
62582;SDS011;48641;51.676;5.808;2024-01-27T06:21:23;5.70;;;2.03;;
62582;SDS011;48641;51.676;5.808;2024-01-27T06:23:50;6.10;;;2.22;;
62582;SDS011;48641;51.676;5.808;2024-01-27T06:26:16;5.55;;;2.35;;
62582;SDS011;48641;51.676;5.808;2024-01-27T06:28:41;7.38;;;2.47;;
62582;SDS011;48641;51.676;5.808;2024-01-27T06:31:07;7.28;;;2.47;;
62582;SDS011;48641;51.676;5.808;2024-01-27T06:33:34;6.57;;;2.50;;
62582;SDS011;48641;51.676;5.808;2024-01-27T06:36:00;8.30;;;2.33;;
62582;SDS011;48641;51.676;5.808;2024-01-27T06:38:26;7.10;;;2.55;;
62582;SDS011;48641;51.676;5.808;2024-01-27T06:40:52;7.05;;;2.42;;
62582;SDS011;48641;51.676;5.808;2024-01-27T06:43:18;7.30;;;2.50;;
62582;SDS011;48641;51.676;5.808;2024-01-27T06:45:44;6.03;;;2.28;;
62582;SDS011;48641;51.676;5.808;2024-01-27T06:48:09;6.45;;;2.83;;
62582;SDS011;48641;51.676;5.808;2024-01-27T06:50:35;6.78;;;2.63;;
62582;SDS011;48641;51.676;5.808;2024-01-27T06:53:01;5.57;;;2.40;;
62582;SDS011;48641;51.676;5.808;2024-01-27T06:55:26;6.72;;;2.30;;
62582;SDS011;48641;51.676;5.808;2024-01-27T06:57:52;6.93;;;2.92;;
62582;SDS011;48641;51.676;5.808;2024-01-27T07:00:18;7.65;;;2.88;;
62582;SDS011;48641;51.676;5.808;2024-01-27T07:02:44;6.80;;;2.45;;
62582;SDS011;48641;51.676;5.808;2024-01-27T07:05:10;8.35;;;2.90;;
62582;SDS011;48641;51.676;5.808;2024-01-27T07:07:37;7.50;;;2.38;;
62582;SDS011;48641;51.676;5.808;2024-01-27T07:10:04;6.97;;;2.17;;
62582;SDS011;48641;51.676;5.808;2024-01-27T07:12:32;6.55;;;2.75;;
62582;SDS011;48641;51.676;5.808;2024-01-27T07:14:58;7.70;;;2.33;;
62582;SDS011;48641;51.676;5.808;2024-01-27T07:17:25;6.43;;;2.30;;
62582;SDS011;48641;51.676;5.808;2024-01-27T07:19:51;6.03;;;2.17;;
62582;SDS011;48641;51.676;5.808;2024-01-27T07:22:17;8.43;;;2.47;;
62582;SDS011;48641;51.676;5.808;2024-01-27T07:24:42;8.57;;;2.42;;
62582;SDS011;48641;51.676;5.808;2024-01-27T07:27:09;6.97;;;2.40;;
62582;SDS011;48641;51.676;5.808;2024-01-27T07:29:36;6.60;;;2.33;;
62582;SDS011;48641;51.676;5.808;2024-01-27T07:32:02;8.35;;;2.50;;
62582;SDS011;48641;51.676;5.808;2024-01-27T07:34:28;9.00;;;2.70;;
62582;SDS011;48641;51.676;5.808;2024-01-27T07:36:53;7.28;;;2.30;;
62582;SDS011;48641;51.676;5.808;2024-01-27T07:39:19;10.43;;;2.67;;
62582;SDS011;48641;51.676;5.808;2024-01-27T07:41:44;9.38;;;2.67;;
62582;SDS011;48641;51.676;5.808;2024-01-27T07:44:11;12.50;;;2.72;;
62582;SDS011;48641;51.676;5.808;2024-01-27T07:46:41;7.68;;;2.65;;
62582;SDS011;48641;51.676;5.808;2024-01-27T07:49:07;8.63;;;2.67;;
62582;SDS011;48641;51.676;5.808;2024-01-27T07:51:33;9.05;;;2.85;;
62582;SDS011;48641;51.676;5.808;2024-01-27T07:53:59;7.32;;;2.97;;
62582;SDS011;48641;51.676;5.808;2024-01-27T07:56:26;8.93;;;2.83;;
62582;SDS011;48641;51.676;5.808;2024-01-27T07:58:52;6.65;;;2.70;;
62582;SDS011;48641;51.676;5.808;2024-01-27T08:01:18;10.15;;;3.17;;
62582;SDS011;48641;51.676;5.808;2024-01-27T08:03:44;9.50;;;3.20;;
62582;SDS011;48641;51.676;5.808;2024-01-27T08:06:16;8.10;;;2.85;;
62582;SDS011;48641;51.676;5.808;2024-01-27T08:08:47;7.63;;;2.97;;
62582;SDS011;48641;51.676;5.808;2024-01-27T08:11:14;7.65;;;3.03;;
62582;SDS011;48641;51.676;5.808;2024-01-27T08:13:40;9.88;;;3.25;;
62582;SDS011;48641;51.676;5.808;2024-01-27T08:18:37;8.88;;;3.03;;
62582;SDS011;48641;51.676;5.808;2024-01-27T08:21:04;9.13;;;2.90;;
62582;SDS011;48641;51.676;5.808;2024-01-27T08:23:29;9.55;;;3.20;;
62582;SDS011;48641;51.676;5.808;2024-01-27T08:25:55;7.45;;;2.97;;
62582;SDS011;48641;51.676;5.808;2024-01-27T08:28:21;11.13;;;3.20;;
62582;SDS011;48641;51.676;5.808;2024-01-27T08:30:47;7.15;;;2.80;;
62582;SDS011;48641;51.676;5.808;2024-01-27T08:33:12;10.60;;;3.47;;
62582;SDS011;48641;51.676;5.808;2024-01-27T08:35:38;8.77;;;3.10;;
62582;SDS011;48641;51.676;5.808;2024-01-27T08:38:03;8.48;;;3.13;;
62582;SDS011;48641;51.676;5.808;2024-01-27T08:40:31;9.13;;;3.33;;
62582;SDS011;48641;51.676;5.808;2024-01-27T08:42:57;9.30;;;3.20;;
62582;SDS011;48641;51.676;5.808;2024-01-27T08:45:22;10.80;;;2.88;;
62582;SDS011;48641;51.676;5.808;2024-01-27T08:47:49;8.38;;;3.22;;
62582;SDS011;48641;51.676;5.808;2024-01-27T08:50:15;8.88;;;3.08;;
62582;SDS011;48641;51.676;5.808;2024-01-27T08:52:40;8.38;;;3.05;;
62582;SDS011;48641;51.676;5.808;2024-01-27T08:55:06;7.53;;;2.75;;
62582;SDS011;48641;51.676;5.808;2024-01-27T08:57:32;11.50;;;3.30;;
62582;SDS011;48641;51.676;5.808;2024-01-27T08:59:58;9.25;;;3.20;;
62582;SDS011;48641;51.676;5.808;2024-01-27T09:02:23;8.45;;;2.85;;
62582;SDS011;48641;51.676;5.808;2024-01-27T09:04:49;10.18;;;3.25;;
62582;SDS011;48641;51.676;5.808;2024-01-27T09:07:15;9.02;;;2.80;;
62582;SDS011;48641;51.676;5.808;2024-01-27T09:09:42;9.85;;;3.30;;
62582;SDS011;48641;51.676;5.808;2024-01-27T09:12:08;10.60;;;3.30;;
62582;SDS011;48641;51.676;5.808;2024-01-27T09:14:33;9.55;;;3.10;;
62582;SDS011;48641;51.676;5.808;2024-01-27T09:17:02;7.85;;;2.92;;
62582;SDS011;48641;51.676;5.808;2024-01-27T09:19:27;9.48;;;2.90;;
62582;SDS011;48641;51.676;5.808;2024-01-27T09:21:53;9.88;;;3.15;;
62582;SDS011;48641;51.676;5.808;2024-01-27T09:24:19;8.60;;;2.75;;
62582;SDS011;48641;51.676;5.808;2024-01-27T09:26:44;8.15;;;2.90;;
62582;SDS011;48641;51.676;5.808;2024-01-27T09:29:10;7.18;;;2.67;;
62582;SDS011;48641;51.676;5.808;2024-01-27T09:31:36;6.30;;;2.58;;
62582;SDS011;48641;51.676;5.808;2024-01-27T09:34:01;8.75;;;2.83;;
62582;SDS011;48641;51.676;5.808;2024-01-27T09:36:27;8.63;;;3.03;;
62582;SDS011;48641;51.676;5.808;2024-01-27T09:38:53;8.15;;;3.00;;
62582;SDS011;48641;51.676;5.808;2024-01-27T09:41:19;7.95;;;3.15;;
62582;SDS011;48641;51.676;5.808;2024-01-27T09:43:46;9.73;;;2.90;;
62582;SDS011;48641;51.676;5.808;2024-01-27T09:46:13;7.57;;;2.72;;
62582;SDS011;48641;51.676;5.808;2024-01-27T09:48:39;8.05;;;2.92;;
62582;SDS011;48641;51.676;5.808;2024-01-27T09:51:06;7.05;;;2.78;;
62582;SDS011;48641;51.676;5.808;2024-01-27T09:53:33;7.53;;;2.75;;
62582;SDS011;48641;51.676;5.808;2024-01-27T09:55:59;8.35;;;3.10;;
62582;SDS011;48641;51.676;5.808;2024-01-27T09:58:27;6.78;;;2.78;;
62582;SDS011;48641;51.676;5.808;2024-01-27T10:00:55;7.78;;;3.13;;
62582;SDS011;48641;51.676;5.808;2024-01-27T10:03:23;8.07;;;2.92;;
62582;SDS011;48641;51.676;5.808;2024-01-27T10:05:50;9.02;;;2.67;;
62582;SDS011;48641;51.676;5.808;2024-01-27T10:08:21;8.88;;;2.83;;
62582;SDS011;48641;51.676;5.808;2024-01-27T10:10:49;6.47;;;2.80;;
62582;SDS011;48641;51.676;5.808;2024-01-27T10:13:19;7.95;;;3.03;;
62582;SDS011;48641;51.676;5.808;2024-01-27T10:16:06;9.15;;;2.78;;
62582;SDS011;48641;51.676;5.808;2024-01-27T10:18:33;8.10;;;2.78;;
62582;SDS011;48641;51.676;5.808;2024-01-27T10:20:59;8.10;;;2.97;;
62582;SDS011;48641;51.676;5.808;2024-01-27T10:23:25;7.70;;;2.67;;
62582;SDS011;48641;51.676;5.808;2024-01-27T10:25:51;8.07;;;3.08;;
62582;SDS011;48641;51.676;5.808;2024-01-27T10:28:18;10.63;;;3.00;;
62582;SDS011;48641;51.676;5.808;2024-01-27T10:30:44;9.38;;;3.03;;
62582;SDS011;48641;51.676;5.808;2024-01-27T10:33:10;6.25;;;2.67;;
62582;SDS011;48641;51.676;5.808;2024-01-27T10:35:38;8.35;;;2.80;;
62582;SDS011;48641;51.676;5.808;2024-01-27T10:38:05;7.43;;;2.40;;
62582;SDS011;48641;51.676;5.808;2024-01-27T10:40:30;8.35;;;2.97;;
62582;SDS011;48641;51.676;5.808;2024-01-27T10:45:38;8.23;;;3.00;;
62582;SDS011;48641;51.676;5.808;2024-01-27T10:48:06;9.43;;;2.85;;
62582;SDS011;48641;51.676;5.808;2024-01-27T10:50:37;6.80;;;2.80;;
62582;SDS011;48641;51.676;5.808;2024-01-27T10:53:04;7.40;;;2.47;;
62582;SDS011;48641;51.676;5.808;2024-01-27T10:55:34;7.78;;;2.97;;
62582;SDS011;48641;51.676;5.808;2024-01-27T10:58:02;7.97;;;2.53;;
62582;SDS011;48641;51.676;5.808;2024-01-27T11:00:29;8.52;;;2.70;;
62582;SDS011;48641;51.676;5.808;2024-01-27T11:02:58;8.15;;;3.00;;
62582;SDS011;48641;51.676;5.808;2024-01-27T11:05:27;8.63;;;2.58;;
62582;SDS011;48641;51.676;5.808;2024-01-27T11:07:57;7.60;;;2.53;;
62582;SDS011;48641;51.676;5.808;2024-01-27T11:10:24;8.10;;;3.13;;
62582;SDS011;48641;51.676;5.808;2024-01-27T11:12:51;7.50;;;2.47;;
62582;SDS011;48641;51.676;5.808;2024-01-27T11:15:20;7.18;;;2.78;;
62582;SDS011;48641;51.676;5.808;2024-01-27T11:17:46;8.30;;;2.65;;
62582;SDS011;48641;51.676;5.808;2024-01-27T11:20:12;7.63;;;2.92;;
62582;SDS011;48641;51.676;5.808;2024-01-27T11:22:38;7.03;;;2.30;;
62582;SDS011;48641;51.676;5.808;2024-01-27T11:25:14;7.55;;;2.83;;
62582;SDS011;48641;51.676;5.808;2024-01-27T11:27:43;7.18;;;2.15;;
62582;SDS011;48641;51.676;5.808;2024-01-27T11:30:32;6.80;;;2.20;;
62582;SDS011;48641;51.676;5.808;2024-01-27T11:33:00;8.68;;;3.15;;
62582;SDS011;48641;51.676;5.808;2024-01-27T11:35:27;6.97;;;2.15;;
62582;SDS011;48641;51.676;5.808;2024-01-27T11:37:53;7.68;;;2.28;;
62582;SDS011;48641;51.676;5.808;2024-01-27T11:40:19;8.10;;;2.65;;
62582;SDS011;48641;51.676;5.808;2024-01-27T11:43:01;7.22;;;2.00;;
62582;SDS011;48641;51.676;5.808;2024-01-27T11:45:27;8.00;;;2.28;;
62582;SDS011;48641;51.676;5.808;2024-01-27T11:47:57;9.90;;;3.17;;
62582;SDS011;48641;51.676;5.808;2024-01-27T11:50:25;8.45;;;2.67;;
62582;SDS011;48641;51.676;5.808;2024-01-27T11:52:50;6.95;;;1.95;;
62582;SDS011;48641;51.676;5.808;2024-01-27T11:55:16;6.65;;;2.33;;
62582;SDS011;48641;51.676;5.808;2024-01-27T11:57:43;8.07;;;2.88;;
62582;SDS011;48641;51.676;5.808;2024-01-27T12:00:10;9.80;;;3.25;;
62582;SDS011;48641;51.676;5.808;2024-01-27T12:02:36;7.22;;;2.30;;
62582;SDS011;48641;51.676;5.808;2024-01-27T12:05:02;6.20;;;2.25;;
62582;SDS011;48641;51.676;5.808;2024-01-27T12:07:29;5.40;;;2.35;;
62582;SDS011;48641;51.676;5.808;2024-01-27T12:09:56;6.50;;;2.08;;
62582;SDS011;48641;51.676;5.808;2024-01-27T12:12:21;7.95;;;2.33;;
62582;SDS011;48641;51.676;5.808;2024-01-27T12:14:48;6.70;;;2.55;;
62582;SDS011;48641;51.676;5.808;2024-01-27T12:17:16;6.93;;;2.28;;
62582;SDS011;48641;51.676;5.808;2024-01-27T12:19:46;7.07;;;2.30;;
62582;SDS011;48641;51.676;5.808;2024-01-27T12:24:52;7.68;;;2.45;;
62582;SDS011;48641;51.676;5.808;2024-01-27T12:27:18;7.22;;;2.30;;
62582;SDS011;48641;51.676;5.808;2024-01-27T12:29:47;8.93;;;2.47;;
62582;SDS011;48641;51.676;5.808;2024-01-27T12:32:14;5.93;;;2.20;;
62582;SDS011;48641;51.676;5.808;2024-01-27T12:34:41;9.00;;;2.75;;
62582;SDS011;48641;51.676;5.808;2024-01-27T12:37:07;7.80;;;2.17;;
62582;SDS011;48641;51.676;5.808;2024-01-27T12:39:35;8.88;;;3.05;;
62582;SDS011;48641;51.676;5.808;2024-01-27T12:42:01;8.18;;;2.80;;
62582;SDS011;48641;51.676;5.808;2024-01-27T12:44:27;7.15;;;2.30;;
62582;SDS011;48641;51.676;5.808;2024-01-27T12:46:52;9.10;;;2.20;;
62582;SDS011;48641;51.676;5.808;2024-01-27T12:49:18;5.43;;;1.77;;
62582;SDS011;48641;51.676;5.808;2024-01-27T12:51:44;7.50;;;1.83;;
62582;SDS011;48641;51.676;5.808;2024-01-27T12:54:10;9.23;;;2.50;;
62582;SDS011;48641;51.676;5.808;2024-01-27T12:56:36;7.13;;;1.90;;
62582;SDS011;48641;51.676;5.808;2024-01-27T12:59:02;6.88;;;1.90;;
62582;SDS011;48641;51.676;5.808;2024-01-27T13:01:28;5.38;;;1.75;;
62582;SDS011;48641;51.676;5.808;2024-01-27T13:03:53;5.70;;;1.85;;
62582;SDS011;48641;51.676;5.808;2024-01-27T13:06:19;7.32;;;2.30;;
62582;SDS011;48641;51.676;5.808;2024-01-27T13:08:45;8.02;;;1.92;;
62582;SDS011;48641;51.676;5.808;2024-01-27T13:11:11;5.47;;;1.83;;
62582;SDS011;48641;51.676;5.808;2024-01-27T13:13:39;6.35;;;2.10;;
62582;SDS011;48641;51.676;5.808;2024-01-27T13:16:06;6.35;;;1.77;;
62582;SDS011;48641;51.676;5.808;2024-01-27T13:18:31;6.05;;;1.80;;
62582;SDS011;48641;51.676;5.808;2024-01-27T13:20:57;5.47;;;1.90;;
62582;SDS011;48641;51.676;5.808;2024-01-27T13:23:23;5.60;;;1.63;;
62582;SDS011;48641;51.676;5.808;2024-01-27T13:25:48;6.72;;;1.60;;
62582;SDS011;48641;51.676;5.808;2024-01-27T13:28:14;6.80;;;1.92;;
62582;SDS011;48641;51.676;5.808;2024-01-27T13:30:40;7.10;;;2.15;;
62582;SDS011;48641;51.676;5.808;2024-01-27T13:33:06;4.90;;;1.70;;
62582;SDS011;48641;51.676;5.808;2024-01-27T13:35:32;5.90;;;1.58;;
62582;SDS011;48641;51.676;5.808;2024-01-27T13:37:58;5.65;;;1.75;;
62582;SDS011;48641;51.676;5.808;2024-01-27T13:40:23;6.93;;;1.70;;
62582;SDS011;48641;51.676;5.808;2024-01-27T13:42:49;7.10;;;1.70;;
62582;SDS011;48641;51.676;5.808;2024-01-27T13:45:14;7.00;;;1.80;;
62582;SDS011;48641;51.676;5.808;2024-01-27T13:47:40;5.07;;;1.50;;
62582;SDS011;48641;51.676;5.808;2024-01-27T13:50:06;7.25;;;1.77;;
62582;SDS011;48641;51.676;5.808;2024-01-27T13:52:32;7.40;;;1.85;;
62582;SDS011;48641;51.676;5.808;2024-01-27T13:54:58;6.38;;;1.63;;
62582;SDS011;48641;51.676;5.808;2024-01-27T13:57:23;6.72;;;1.50;;
62582;SDS011;48641;51.676;5.808;2024-01-27T13:59:49;5.82;;;1.42;;
62582;SDS011;48641;51.676;5.808;2024-01-27T14:02:15;6.05;;;1.50;;
62582;SDS011;48641;51.676;5.808;2024-01-27T14:04:41;6.22;;;1.73;;
62582;SDS011;48641;51.676;5.808;2024-01-27T14:07:06;5.07;;;1.55;;
62582;SDS011;48641;51.676;5.808;2024-01-27T14:09:34;5.82;;;1.55;;
62582;SDS011;48641;51.676;5.808;2024-01-27T14:12:00;6.60;;;1.80;;
62582;SDS011;48641;51.676;5.808;2024-01-27T14:14:26;5.65;;;1.60;;
62582;SDS011;48641;51.676;5.808;2024-01-27T14:16:51;4.97;;;1.40;;
62582;SDS011;48641;51.676;5.808;2024-01-27T14:19:17;6.03;;;1.67;;
62582;SDS011;48641;51.676;5.808;2024-01-27T14:21:43;5.65;;;1.60;;
62582;SDS011;48641;51.676;5.808;2024-01-27T14:24:08;7.82;;;2.08;;
62582;SDS011;48641;51.676;5.808;2024-01-27T14:26:35;5.90;;;1.52;;
62582;SDS011;48641;51.676;5.808;2024-01-27T14:29:00;6.45;;;1.50;;
62582;SDS011;48641;51.676;5.808;2024-01-27T14:31:26;5.45;;;1.63;;
62582;SDS011;48641;51.676;5.808;2024-01-27T14:33:52;4.65;;;1.38;;
62582;SDS011;48641;51.676;5.808;2024-01-27T14:36:18;6.32;;;1.42;;
62582;SDS011;48641;51.676;5.808;2024-01-27T14:38:45;4.22;;;1.50;;
62582;SDS011;48641;51.676;5.808;2024-01-27T14:41:11;4.22;;;1.48;;
62582;SDS011;48641;51.676;5.808;2024-01-27T14:43:36;5.53;;;1.30;;
62582;SDS011;48641;51.676;5.808;2024-01-27T14:46:03;4.75;;;1.40;;
62582;SDS011;48641;51.676;5.808;2024-01-27T14:48:29;6.95;;;1.75;;
62582;SDS011;48641;51.676;5.808;2024-01-27T14:50:55;6.95;;;1.60;;